sensor_id;sensor_type;location;lat;lon;timestamp;P1;durP1;ratioP1;P2;durP2;ratioP2
7279;SDS011;3681;52.254;10.532;2022-08-01T00:02:30;5.23;;;4.67;;
7279;SDS011;3681;52.254;10.532;2022-08-01T00:05:51;5.10;;;3.80;;
7279;SDS011;3681;52.254;10.532;2022-08-01T00:09:14;6.97;;;5.00;;
7279;SDS011;3681;52.254;10.532;2022-08-01T00:12:43;4.37;;;4.07;;
7279;SDS011;3681;52.254;10.532;2022-08-01T00:16:06;7.00;;;4.30;;
7279;SDS011;3681;52.254;10.532;2022-08-01T00:19:27;4.13;;;3.73;;
7279;SDS011;3681;52.254;10.532;2022-08-01T00:22:48;7.53;;;4.27;;
7279;SDS011;3681;52.254;10.532;2022-08-01T00:26:10;5.73;;;4.17;;
7279;SDS011;3681;52.254;10.532;2022-08-01T00:29:31;3.70;;;3.40;;
7279;SDS011;3681;52.254;10.532;2022-08-01T00:33:13;4.83;;;4.20;;
7279;SDS011;3681;52.254;10.532;2022-08-01T00:36:34;7.77;;;4.07;;
7279;SDS011;3681;52.254;10.532;2022-08-01T00:39:55;8.17;;;3.80;;
7279;SDS011;3681;52.254;10.532;2022-08-01T00:43:18;7.20;;;3.70;;
7279;SDS011;3681;52.254;10.532;2022-08-01T00:46:39;5.10;;;3.67;;
7279;SDS011;3681;52.254;10.532;2022-08-01T00:50:00;4.50;;;4.10;;
7279;SDS011;3681;52.254;10.532;2022-08-01T00:53:22;6.57;;;4.43;;
7279;SDS011;3681;52.254;10.532;2022-08-01T00:56:44;5.47;;;4.00;;
7279;SDS011;3681;52.254;10.532;2022-08-01T01:00:09;7.10;;;4.20;;
7279;SDS011;3681;52.254;10.532;2022-08-01T01:03:31;5.13;;;4.07;;
7279;SDS011;3681;52.254;10.532;2022-08-01T01:07:14;7.53;;;3.77;;
7279;SDS011;3681;52.254;10.532;2022-08-01T01:10:40;4.57;;;3.57;;
7279;SDS011;3681;52.254;10.532;2022-08-01T01:14:08;5.77;;;4.07;;
7279;SDS011;3681;52.254;10.532;2022-08-01T01:17:38;4.27;;;3.90;;
7279;SDS011;3681;52.254;10.532;2022-08-01T01:21:14;7.70;;;3.90;;
7279;SDS011;3681;52.254;10.532;2022-08-01T01:25:18;4.80;;;4.40;;
7279;SDS011;3681;52.254;10.532;2022-08-01T01:29:02;5.63;;;4.50;;
7279;SDS011;3681;52.254;10.532;2022-08-01T01:32:28;7.97;;;4.67;;
7279;SDS011;3681;52.254;10.532;2022-08-01T01:35:57;5.40;;;4.83;;
7279;SDS011;3681;52.254;10.532;2022-08-01T01:39:20;13.93;;;4.87;;
7279;SDS011;3681;52.254;10.532;2022-08-01T01:42:45;4.83;;;4.33;;
7279;SDS011;3681;52.254;10.532;2022-08-01T01:46:09;9.20;;;5.17;;
7279;SDS011;3681;52.254;10.532;2022-08-01T01:49:34;9.27;;;5.00;;
7279;SDS011;3681;52.254;10.532;2022-08-01T01:52:56;11.53;;;4.83;;
7279;SDS011;3681;52.254;10.532;2022-08-01T01:56:19;6.20;;;4.57;;
7279;SDS011;3681;52.254;10.532;2022-08-01T01:59:42;8.57;;;4.43;;
7279;SDS011;3681;52.254;10.532;2022-08-01T02:03:07;11.70;;;4.67;;
7279;SDS011;3681;52.254;10.532;2022-08-01T02:06:31;5.80;;;4.97;;
7279;SDS011;3681;52.254;10.532;2022-08-01T02:09:53;6.83;;;4.20;;
7279;SDS011;3681;52.254;10.532;2022-08-01T02:13:16;6.00;;;3.97;;
7279;SDS011;3681;52.254;10.532;2022-08-01T02:16:41;5.63;;;4.67;;
7279;SDS011;3681;52.254;10.532;2022-08-01T02:20:07;5.43;;;4.80;;
7279;SDS011;3681;52.254;10.532;2022-08-01T02:23:31;6.47;;;4.43;;
7279;SDS011;3681;52.254;10.532;2022-08-01T02:26:54;8.93;;;4.80;;
7279;SDS011;3681;52.254;10.532;2022-08-01T02:30:21;8.77;;;4.70;;
7279;SDS011;3681;52.254;10.532;2022-08-01T02:33:48;7.13;;;4.70;;
7279;SDS011;3681;52.254;10.532;2022-08-01T02:37:17;4.60;;;4.20;;
7279;SDS011;3681;52.254;10.532;2022-08-01T02:40:42;5.70;;;4.37;;
7279;SDS011;3681;52.254;10.532;2022-08-01T02:44:06;6.77;;;4.30;;
7279;SDS011;3681;52.254;10.532;2022-08-01T02:47:30;7.57;;;4.60;;
7279;SDS011;3681;52.254;10.532;2022-08-01T02:50:54;5.90;;;4.17;;
7279;SDS011;3681;52.254;10.532;2022-08-01T02:54:19;7.70;;;4.00;;
7279;SDS011;3681;52.254;10.532;2022-08-01T02:57:43;6.73;;;4.07;;
7279;SDS011;3681;52.254;10.532;2022-08-01T03:01:11;10.03;;;4.40;;
7279;SDS011;3681;52.254;10.532;2022-08-01T03:04:36;8.57;;;4.30;;
7279;SDS011;3681;52.254;10.532;2022-08-01T03:08:00;4.73;;;4.23;;
7279;SDS011;3681;52.254;10.532;2022-08-01T03:11:24;7.43;;;4.20;;
7279;SDS011;3681;52.254;10.532;2022-08-01T03:14:49;6.57;;;4.37;;
7279;SDS011;3681;52.254;10.532;2022-08-01T03:18:14;4.67;;;4.23;;
7279;SDS011;3681;52.254;10.532;2022-08-01T03:21:41;6.47;;;5.67;;
7279;SDS011;3681;52.254;10.532;2022-08-01T03:25:04;6.87;;;3.80;;
7279;SDS011;3681;52.254;10.532;2022-08-01T03:28:29;10.63;;;4.67;;
7279;SDS011;3681;52.254;10.532;2022-08-01T03:31:51;3.97;;;3.67;;
7279;SDS011;3681;52.254;10.532;2022-08-01T03:35:13;3.37;;;3.07;;
7279;SDS011;3681;52.254;10.532;2022-08-01T03:38:34;5.97;;;2.93;;
7279;SDS011;3681;52.254;10.532;2022-08-01T03:42:04;2.63;;;2.43;;
7279;SDS011;3681;52.254;10.532;2022-08-01T03:45:34;2.93;;;2.70;;
7279;SDS011;3681;52.254;10.532;2022-08-01T03:48:58;2.73;;;2.53;;
7279;SDS011;3681;52.254;10.532;2022-08-01T03:52:24;2.03;;;1.93;;
7279;SDS011;3681;52.254;10.532;2022-08-01T03:55:48;1.70;;;1.70;;
7279;SDS011;3681;52.254;10.532;2022-08-01T03:59:11;3.43;;;2.30;;
7279;SDS011;3681;52.254;10.532;2022-08-01T04:02:34;3.63;;;2.20;;
7279;SDS011;3681;52.254;10.532;2022-08-01T04:05:56;3.27;;;2.53;;
7279;SDS011;3681;52.254;10.532;2022-08-01T04:09:17;5.03;;;2.63;;
7279;SDS011;3681;52.254;10.532;2022-08-01T04:12:40;2.80;;;2.60;;
7279;SDS011;3681;52.254;10.532;2022-08-01T04:16:02;3.47;;;3.20;;
7279;SDS011;3681;52.254;10.532;2022-08-01T04:19:25;7.53;;;3.10;;
7279;SDS011;3681;52.254;10.532;2022-08-01T04:22:46;5.40;;;3.63;;
7279;SDS011;3681;52.254;10.532;2022-08-01T04:26:07;4.43;;;3.00;;
7279;SDS011;3681;52.254;10.532;2022-08-01T04:29:31;4.17;;;3.77;;
7279;SDS011;3681;52.254;10.532;2022-08-01T04:32:54;5.50;;;3.73;;
7279;SDS011;3681;52.254;10.532;2022-08-01T04:36:17;3.83;;;3.53;;
7279;SDS011;3681;52.254;10.532;2022-08-01T04:39:42;4.43;;;3.63;;
7279;SDS011;3681;52.254;10.532;2022-08-01T04:43:10;4.00;;;3.70;;
7279;SDS011;3681;52.254;10.532;2022-08-01T04:46:34;5.23;;;4.00;;
7279;SDS011;3681;52.254;10.532;2022-08-01T04:49:59;4.00;;;3.40;;
7279;SDS011;3681;52.254;10.532;2022-08-01T04:53:21;5.00;;;3.83;;
7279;SDS011;3681;52.254;10.532;2022-08-01T04:56:43;6.70;;;4.37;;
7279;SDS011;3681;52.254;10.532;2022-08-01T05:00:11;4.10;;;3.80;;
7279;SDS011;3681;52.254;10.532;2022-08-01T05:03:37;4.10;;;3.80;;
7279;SDS011;3681;52.254;10.532;2022-08-01T05:06:58;4.23;;;3.83;;
7279;SDS011;3681;52.254;10.532;2022-08-01T05:10:21;4.40;;;4.00;;
7279;SDS011;3681;52.254;10.532;2022-08-01T05:13:42;6.00;;;4.23;;
7279;SDS011;3681;52.254;10.532;2022-08-01T05:17:07;5.83;;;4.93;;
7279;SDS011;3681;52.254;10.532;2022-08-01T05:20:29;5.43;;;4.93;;
7279;SDS011;3681;52.254;10.532;2022-08-01T05:23:51;7.47;;;5.53;;
7279;SDS011;3681;52.254;10.532;2022-08-01T05:27:14;9.80;;;5.63;;
7279;SDS011;3681;52.254;10.532;2022-08-01T05:30:38;9.20;;;7.40;;
7279;SDS011;3681;52.254;10.532;2022-08-01T05:33:59;11.60;;;7.27;;
7279;SDS011;3681;52.254;10.532;2022-08-01T05:37:22;9.33;;;7.40;;
7279;SDS011;3681;52.254;10.532;2022-08-01T05:40:43;11.87;;;8.53;;
7279;SDS011;3681;52.254;10.532;2022-08-01T05:44:07;9.20;;;7.53;;
7279;SDS011;3681;52.254;10.532;2022-08-01T05:47:29;10.37;;;9.20;;
7279;SDS011;3681;52.254;10.532;2022-08-01T05:50:52;11.50;;;9.87;;
7279;SDS011;3681;52.254;10.532;2022-08-01T05:54:17;13.83;;;9.97;;
7279;SDS011;3681;52.254;10.532;2022-08-01T05:57:39;12.90;;;9.80;;
7279;SDS011;3681;52.254;10.532;2022-08-01T06:01:01;11.33;;;9.40;;
7279;SDS011;3681;52.254;10.532;2022-08-01T06:04:28;11.70;;;8.70;;
7279;SDS011;3681;52.254;10.532;2022-08-01T06:07:49;10.17;;;8.67;;
7279;SDS011;3681;52.254;10.532;2022-08-01T06:11:11;12.93;;;9.30;;
7279;SDS011;3681;52.254;10.532;2022-08-01T06:14:32;11.03;;;9.23;;
7279;SDS011;3681;52.254;10.532;2022-08-01T06:17:55;13.30;;;8.70;;
7279;SDS011;3681;52.254;10.532;2022-08-01T06:21:16;13.90;;;9.17;;
7279;SDS011;3681;52.254;10.532;2022-08-01T06:24:37;10.63;;;7.93;;
7279;SDS011;3681;52.254;10.532;2022-08-01T06:28:00;12.77;;;8.10;;
7279;SDS011;3681;52.254;10.532;2022-08-01T06:31:24;10.37;;;7.70;;
7279;SDS011;3681;52.254;10.532;2022-08-01T06:34:53;10.53;;;7.40;;
7279;SDS011;3681;52.254;10.532;2022-08-01T06:38:15;9.10;;;6.33;;
7279;SDS011;3681;52.254;10.532;2022-08-01T06:41:37;8.37;;;5.20;;
7279;SDS011;3681;52.254;10.532;2022-08-01T06:45:02;6.67;;;5.40;;
7279;SDS011;3681;52.254;10.532;2022-08-01T06:48:23;5.80;;;4.33;;
7279;SDS011;3681;52.254;10.532;2022-08-01T06:51:45;4.30;;;3.57;;
7279;SDS011;3681;52.254;10.532;2022-08-01T06:55:07;3.80;;;3.50;;
7279;SDS011;3681;52.254;10.532;2022-08-01T06:58:30;2.83;;;2.57;;
7279;SDS011;3681;52.254;10.532;2022-08-01T07:01:52;3.60;;;2.37;;
7279;SDS011;3681;52.254;10.532;2022-08-01T07:05:13;2.60;;;2.40;;
7279;SDS011;3681;52.254;10.532;2022-08-01T07:08:35;2.73;;;2.13;;
7279;SDS011;3681;52.254;10.532;2022-08-01T07:11:58;2.50;;;2.30;;
7279;SDS011;3681;52.254;10.532;2022-08-01T07:15:19;2.93;;;2.10;;
7279;SDS011;3681;52.254;10.532;2022-08-01T07:18:45;2.07;;;1.83;;
7279;SDS011;3681;52.254;10.532;2022-08-01T07:22:07;1.63;;;1.37;;
7279;SDS011;3681;52.254;10.532;2022-08-01T07:25:31;1.60;;;1.20;;
7279;SDS011;3681;52.254;10.532;2022-08-01T07:28:53;2.40;;;1.50;;
7279;SDS011;3681;52.254;10.532;2022-08-01T07:32:14;2.50;;;1.10;;
7279;SDS011;3681;52.254;10.532;2022-08-01T07:35:37;0.90;;;0.90;;
7279;SDS011;3681;52.254;10.532;2022-08-01T07:38:59;3.90;;;0.90;;
7279;SDS011;3681;52.254;10.532;2022-08-01T07:42:22;1.23;;;0.93;;
7279;SDS011;3681;52.254;10.532;2022-08-01T07:45:43;2.10;;;1.17;;
7279;SDS011;3681;52.254;10.532;2022-08-01T07:49:06;2.57;;;1.57;;
7279;SDS011;3681;52.254;10.532;2022-08-01T07:52:27;1.57;;;1.47;;
7279;SDS011;3681;52.254;10.532;2022-08-01T07:55:49;3.03;;;1.40;;
7279;SDS011;3681;52.254;10.532;2022-08-01T07:59:13;1.60;;;1.57;;
7279;SDS011;3681;52.254;10.532;2022-08-01T08:02:45;1.53;;;1.43;;
7279;SDS011;3681;52.254;10.532;2022-08-01T08:06:06;1.00;;;1.00;;
7279;SDS011;3681;52.254;10.532;2022-08-01T08:09:28;1.20;;;1.20;;
7279;SDS011;3681;52.254;10.532;2022-08-01T08:12:56;0.80;;;0.80;;
7279;SDS011;3681;52.254;10.532;2022-08-01T08:16:19;1.67;;;0.90;;
7279;SDS011;3681;52.254;10.532;2022-08-01T08:19:41;1.13;;;1.00;;
7279;SDS011;3681;52.254;10.532;2022-08-01T08:23:02;1.40;;;0.87;;
7279;SDS011;3681;52.254;10.532;2022-08-01T08:27:02;2.40;;;1.20;;
7279;SDS011;3681;52.254;10.532;2022-08-01T08:30:24;2.83;;;1.10;;
7279;SDS011;3681;52.254;10.532;2022-08-01T08:33:46;1.07;;;0.87;;
7279;SDS011;3681;52.254;10.532;2022-08-01T08:37:10;0.80;;;0.80;;
7279;SDS011;3681;52.254;10.532;2022-08-01T08:40:32;1.15;;;0.90;;
7279;SDS011;3681;52.254;10.532;2022-08-01T08:44:00;3.20;;;0.63;;
7279;SDS011;3681;52.254;10.532;2022-08-01T08:47:22;2.08;;;0.60;;
7279;SDS011;3681;52.254;10.532;2022-08-01T08:50:47;0.70;;;0.70;;
7279;SDS011;3681;52.254;10.532;2022-08-01T08:54:10;0.50;;;0.50;;
7279;SDS011;3681;52.254;10.532;2022-08-01T08:57:33;1.30;;;0.70;;
7279;SDS011;3681;52.254;10.532;2022-08-01T09:00:54;2.20;;;0.50;;
7279;SDS011;3681;52.254;10.532;2022-08-01T09:04:17;0.90;;;0.80;;
7279;SDS011;3681;52.254;10.532;2022-08-01T09:07:43;0.88;;;0.88;;
7279;SDS011;3681;52.254;10.532;2022-08-01T09:11:05;1.02;;;1.02;;
7279;SDS011;3681;52.254;10.532;2022-08-01T09:14:27;2.33;;;1.23;;
7279;SDS011;3681;52.254;10.532;2022-08-01T09:17:50;1.65;;;1.60;;
7279;SDS011;3681;52.254;10.532;2022-08-01T09:21:12;2.05;;;1.95;;
7279;SDS011;3681;52.254;10.532;2022-08-01T09:24:38;1.65;;;1.55;;
7279;SDS011;3681;52.254;10.532;2022-08-01T09:28:02;3.17;;;2.20;;
7279;SDS011;3681;52.254;10.532;2022-08-01T09:31:26;1.50;;;1.42;;
7279;SDS011;3681;52.254;10.532;2022-08-01T09:34:57;1.65;;;1.27;;
7279;SDS011;3681;52.254;10.532;2022-08-01T09:38:49;1.10;;;1.10;;
7279;SDS011;3681;52.254;10.532;2022-08-01T09:42:20;1.00;;;1.00;;
7279;SDS011;3681;52.254;10.532;2022-08-01T09:45:48;0.70;;;0.70;;
7279;SDS011;3681;52.254;10.532;2022-08-01T09:49:12;0.70;;;0.70;;
7279;SDS011;3681;52.254;10.532;2022-08-01T09:52:34;2.53;;;0.70;;
7279;SDS011;3681;52.254;10.532;2022-08-01T09:56:08;0.52;;;0.52;;
7279;SDS011;3681;52.254;10.532;2022-08-01T09:59:35;1.45;;;0.77;;
7279;SDS011;3681;52.254;10.532;2022-08-01T10:03:20;2.15;;;0.77;;
7279;SDS011;3681;52.254;10.532;2022-08-01T10:06:43;2.33;;;0.60;;
7279;SDS011;3681;52.254;10.532;2022-08-01T10:10:09;2.97;;;0.90;;
7279;SDS011;3681;52.254;10.532;2022-08-01T10:13:33;1.23;;;0.60;;
7279;SDS011;3681;52.254;10.532;2022-08-01T10:16:57;2.97;;;0.77;;
7279;SDS011;3681;52.254;10.532;2022-08-01T10:20:25;2.22;;;0.80;;
7279;SDS011;3681;52.254;10.532;2022-08-01T10:23:50;0.85;;;0.77;;
7279;SDS011;3681;52.254;10.532;2022-08-01T10:27:12;1.58;;;0.60;;
7279;SDS011;3681;52.254;10.532;2022-08-01T10:30:56;2.15;;;1.05;;
7279;SDS011;3681;52.254;10.532;2022-08-01T10:34:19;0.60;;;0.60;;
7279;SDS011;3681;52.254;10.532;2022-08-01T10:37:43;0.73;;;0.73;;
7279;SDS011;3681;52.254;10.532;2022-08-01T10:41:11;0.60;;;0.60;;
7279;SDS011;3681;52.254;10.532;2022-08-01T10:44:34;1.30;;;0.70;;
7279;SDS011;3681;52.254;10.532;2022-08-01T10:47:59;0.60;;;0.55;;
7279;SDS011;3681;52.254;10.532;2022-08-01T10:51:26;0.50;;;0.50;;
7279;SDS011;3681;52.254;10.532;2022-08-01T10:55:08;0.50;;;0.50;;
7279;SDS011;3681;52.254;10.532;2022-08-01T10:58:31;0.80;;;0.80;;
7279;SDS011;3681;52.254;10.532;2022-08-01T11:02:04;3.35;;;1.00;;
7279;SDS011;3681;52.254;10.532;2022-08-01T11:05:27;4.03;;;0.90;;
7279;SDS011;3681;52.254;10.532;2022-08-01T11:08:53;0.60;;;0.60;;
7279;SDS011;3681;52.254;10.532;2022-08-01T11:12:17;1.17;;;0.90;;
7279;SDS011;3681;52.254;10.532;2022-08-01T11:15:44;1.50;;;0.55;;
7279;SDS011;3681;52.254;10.532;2022-08-01T11:19:09;1.13;;;0.50;;
7279;SDS011;3681;52.254;10.532;2022-08-01T11:22:31;3.08;;;0.70;;
7279;SDS011;3681;52.254;10.532;2022-08-01T11:29:32;1.67;;;0.68;;
7279;SDS011;3681;52.254;10.532;2022-08-01T11:32:54;2.90;;;0.57;;
7279;SDS011;3681;52.254;10.532;2022-08-01T11:36:30;1.65;;;0.68;;
7279;SDS011;3681;52.254;10.532;2022-08-01T11:40:15;0.88;;;0.55;;
7279;SDS011;3681;52.254;10.532;2022-08-01T11:47:18;0.47;;;0.40;;
7279;SDS011;3681;52.254;10.532;2022-08-01T11:51:08;1.25;;;0.82;;
7279;SDS011;3681;52.254;10.532;2022-08-01T11:54:45;1.00;;;0.63;;
7279;SDS011;3681;52.254;10.532;2022-08-01T11:58:08;2.70;;;0.70;;
7279;SDS011;3681;52.254;10.532;2022-08-01T12:01:49;1.80;;;0.60;;
7279;SDS011;3681;52.254;10.532;2022-08-01T12:05:11;2.72;;;0.57;;
7279;SDS011;3681;52.254;10.532;2022-08-01T12:08:34;2.75;;;0.50;;
7279;SDS011;3681;52.254;10.532;2022-08-01T12:11:56;4.80;;;0.70;;
7279;SDS011;3681;52.254;10.532;2022-08-01T12:15:19;1.45;;;0.50;;
7279;SDS011;3681;52.254;10.532;2022-08-01T12:18:44;1.55;;;0.90;;
7279;SDS011;3681;52.254;10.532;2022-08-01T12:22:09;1.55;;;0.63;;
7279;SDS011;3681;52.254;10.532;2022-08-01T12:25:32;2.03;;;0.65;;
7279;SDS011;3681;52.254;10.532;2022-08-01T12:28:54;1.45;;;0.80;;
7279;SDS011;3681;52.254;10.532;2022-08-01T12:32:22;3.10;;;0.60;;
7279;SDS011;3681;52.254;10.532;2022-08-01T12:35:51;2.15;;;1.02;;
7279;SDS011;3681;52.254;10.532;2022-08-01T12:39:12;5.38;;;0.60;;
7279;SDS011;3681;52.254;10.532;2022-08-01T12:42:35;2.72;;;1.17;;
7279;SDS011;3681;52.254;10.532;2022-08-01T12:45:58;4.18;;;1.10;;
7279;SDS011;3681;52.254;10.532;2022-08-01T12:49:20;2.33;;;0.70;;
7279;SDS011;3681;52.254;10.532;2022-08-01T12:52:44;1.55;;;0.70;;
7279;SDS011;3681;52.254;10.532;2022-08-01T12:56:05;4.95;;;0.98;;
7279;SDS011;3681;52.254;10.532;2022-08-01T12:59:29;7.57;;;1.13;;
7279;SDS011;3681;52.254;10.532;2022-08-01T13:02:59;2.58;;;0.73;;
7279;SDS011;3681;52.254;10.532;2022-08-01T13:06:22;3.25;;;0.82;;
7279;SDS011;3681;52.254;10.532;2022-08-01T13:09:50;3.70;;;0.70;;
7279;SDS011;3681;52.254;10.532;2022-08-01T13:13:11;1.60;;;0.90;;
7279;SDS011;3681;52.254;10.532;2022-08-01T13:16:47;2.15;;;0.70;;
7279;SDS011;3681;52.254;10.532;2022-08-01T13:20:30;3.33;;;0.70;;
7279;SDS011;3681;52.254;10.532;2022-08-01T13:24:00;2.45;;;0.90;;
7279;SDS011;3681;52.254;10.532;2022-08-01T13:27:24;2.28;;;0.88;;
7279;SDS011;3681;52.254;10.532;2022-08-01T13:30:50;1.17;;;0.55;;
7279;SDS011;3681;52.254;10.532;2022-08-01T13:34:13;7.15;;;1.17;;
7279;SDS011;3681;52.254;10.532;2022-08-01T13:37:34;4.55;;;0.98;;
7279;SDS011;3681;52.254;10.532;2022-08-01T13:40:59;3.72;;;0.60;;
7279;SDS011;3681;52.254;10.532;2022-08-01T13:44:21;2.78;;;0.60;;
7279;SDS011;3681;52.254;10.532;2022-08-01T13:47:43;2.03;;;0.90;;
7279;SDS011;3681;52.254;10.532;2022-08-01T13:51:24;6.00;;;0.65;;
7279;SDS011;3681;52.254;10.532;2022-08-01T13:54:45;6.47;;;1.10;;
7279;SDS011;3681;52.254;10.532;2022-08-01T13:58:07;2.60;;;1.00;;
7279;SDS011;3681;52.254;10.532;2022-08-01T14:01:30;2.05;;;0.70;;
7279;SDS011;3681;52.254;10.532;2022-08-01T14:04:53;3.95;;;1.67;;
7279;SDS011;3681;52.254;10.532;2022-08-01T14:08:15;2.67;;;1.05;;
7279;SDS011;3681;52.254;10.532;2022-08-01T14:11:36;1.52;;;1.10;;
7279;SDS011;3681;52.254;10.532;2022-08-01T14:15:05;3.17;;;0.90;;
7279;SDS011;3681;52.254;10.532;2022-08-01T14:18:29;2.20;;;0.47;;
7279;SDS011;3681;52.254;10.532;2022-08-01T14:21:50;2.95;;;0.88;;
7279;SDS011;3681;52.254;10.532;2022-08-01T14:25:12;0.95;;;0.70;;
7279;SDS011;3681;52.254;10.532;2022-08-01T14:28:54;2.90;;;0.90;;
7279;SDS011;3681;52.254;10.532;2022-08-01T14:32:15;2.15;;;0.63;;
7279;SDS011;3681;52.254;10.532;2022-08-01T14:35:42;4.18;;;1.33;;
7279;SDS011;3681;52.254;10.532;2022-08-01T14:39:23;1.88;;;0.80;;
7279;SDS011;3681;52.254;10.532;2022-08-01T14:42:45;1.92;;;0.65;;
7279;SDS011;3681;52.254;10.532;2022-08-01T14:46:07;2.25;;;0.90;;
7279;SDS011;3681;52.254;10.532;2022-08-01T14:49:29;4.40;;;0.90;;
7279;SDS011;3681;52.254;10.532;2022-08-01T14:52:53;5.05;;;1.35;;
7279;SDS011;3681;52.254;10.532;2022-08-01T14:56:14;3.97;;;1.02;;
7279;SDS011;3681;52.254;10.532;2022-08-01T14:59:37;5.13;;;1.15;;
7279;SDS011;3681;52.254;10.532;2022-08-01T15:02:59;3.60;;;1.02;;
7279;SDS011;3681;52.254;10.532;2022-08-01T15:06:20;5.05;;;1.08;;
7279;SDS011;3681;52.254;10.532;2022-08-01T15:09:44;6.47;;;1.13;;
7279;SDS011;3681;52.254;10.532;2022-08-01T15:13:06;1.45;;;0.63;;
7279;SDS011;3681;52.254;10.532;2022-08-01T15:16:29;2.83;;;1.08;;
7279;SDS011;3681;52.254;10.532;2022-08-01T15:19:51;5.93;;;1.85;;
7279;SDS011;3681;52.254;10.532;2022-08-01T15:23:13;2.65;;;0.85;;
7279;SDS011;3681;52.254;10.532;2022-08-01T15:26:36;2.50;;;1.20;;
7279;SDS011;3681;52.254;10.532;2022-08-01T15:29:57;5.10;;;1.38;;
7279;SDS011;3681;52.254;10.532;2022-08-01T15:33:19;5.45;;;0.82;;
7279;SDS011;3681;52.254;10.532;2022-08-01T15:36:42;2.78;;;1.23;;
7279;SDS011;3681;52.254;10.532;2022-08-01T15:40:09;2.63;;;0.95;;
7279;SDS011;3681;52.254;10.532;2022-08-01T15:43:33;4.03;;;1.25;;
7279;SDS011;3681;52.254;10.532;2022-08-01T15:47:03;3.28;;;1.42;;
7279;SDS011;3681;52.254;10.532;2022-08-01T15:50:26;5.70;;;1.52;;
7279;SDS011;3681;52.254;10.532;2022-08-01T15:53:47;6.45;;;1.30;;
7279;SDS011;3681;52.254;10.532;2022-08-01T15:57:09;3.20;;;0.82;;
7279;SDS011;3681;52.254;10.532;2022-08-01T16:00:35;7.68;;;1.38;;
7279;SDS011;3681;52.254;10.532;2022-08-01T16:03:58;4.10;;;1.23;;
7279;SDS011;3681;52.254;10.532;2022-08-01T16:07:20;6.65;;;1.65;;
7279;SDS011;3681;52.254;10.532;2022-08-01T16:10:41;10.20;;;1.63;;
7279;SDS011;3681;52.254;10.532;2022-08-01T16:14:03;5.15;;;1.20;;
7279;SDS011;3681;52.254;10.532;2022-08-01T16:17:27;4.90;;;1.02;;
7279;SDS011;3681;52.254;10.532;2022-08-01T16:20:48;3.80;;;1.02;;
7279;SDS011;3681;52.254;10.532;2022-08-01T16:24:10;7.03;;;1.65;;
7279;SDS011;3681;52.254;10.532;2022-08-01T16:27:31;8.63;;;1.52;;
7279;SDS011;3681;52.254;10.532;2022-08-01T16:30:57;4.18;;;1.65;;
7279;SDS011;3681;52.254;10.532;2022-08-01T16:34:40;6.50;;;1.20;;
7279;SDS011;3681;52.254;10.532;2022-08-01T16:38:06;2.85;;;1.30;;
7279;SDS011;3681;52.254;10.532;2022-08-01T16:41:30;14.95;;;1.67;;
7279;SDS011;3681;52.254;10.532;2022-08-01T16:44:58;7.13;;;1.48;;
7279;SDS011;3681;52.254;10.532;2022-08-01T16:48:27;5.35;;;1.42;;
7279;SDS011;3681;52.254;10.532;2022-08-01T16:51:57;13.55;;;1.52;;
7279;SDS011;3681;52.254;10.532;2022-08-01T16:55:18;3.28;;;1.40;;
7279;SDS011;3681;52.254;10.532;2022-08-01T16:58:42;9.23;;;1.73;;
7279;SDS011;3681;52.254;10.532;2022-08-01T17:02:03;11.88;;;1.75;;
7279;SDS011;3681;52.254;10.532;2022-08-01T17:05:25;6.85;;;1.60;;
7279;SDS011;3681;52.254;10.532;2022-08-01T17:08:48;8.13;;;1.58;;
7279;SDS011;3681;52.254;10.532;2022-08-01T17:12:11;8.30;;;1.70;;
7279;SDS011;3681;52.254;10.532;2022-08-01T17:15:42;10.45;;;1.67;;
7279;SDS011;3681;52.254;10.532;2022-08-01T17:19:07;8.23;;;1.30;;
7279;SDS011;3681;52.254;10.532;2022-08-01T17:22:29;5.97;;;1.80;;
7279;SDS011;3681;52.254;10.532;2022-08-01T17:25:51;11.57;;;2.22;;
7279;SDS011;3681;52.254;10.532;2022-08-01T17:29:13;6.43;;;1.25;;
7279;SDS011;3681;52.254;10.532;2022-08-01T17:32:36;4.88;;;1.17;;
7279;SDS011;3681;52.254;10.532;2022-08-01T17:35:59;11.40;;;1.33;;
7279;SDS011;3681;52.254;10.532;2022-08-01T17:39:23;8.45;;;1.90;;
7279;SDS011;3681;52.254;10.532;2022-08-01T17:42:59;6.38;;;2.10;;
7279;SDS011;3681;52.254;10.532;2022-08-01T17:46:24;11.18;;;1.58;;
7279;SDS011;3681;52.254;10.532;2022-08-01T17:49:46;11.77;;;1.88;;
7279;SDS011;3681;52.254;10.532;2022-08-01T17:53:15;8.15;;;1.90;;
7279;SDS011;3681;52.254;10.532;2022-08-01T17:56:40;7.03;;;1.45;;
7279;SDS011;3681;52.254;10.532;2022-08-01T18:00:07;5.72;;;1.90;;
7279;SDS011;3681;52.254;10.532;2022-08-01T18:03:29;6.97;;;1.70;;
7279;SDS011;3681;52.254;10.532;2022-08-01T18:07:01;5.63;;;1.63;;
7279;SDS011;3681;52.254;10.532;2022-08-01T18:10:23;10.45;;;2.08;;
7279;SDS011;3681;52.254;10.532;2022-08-01T18:13:45;7.72;;;1.55;;
7279;SDS011;3681;52.254;10.532;2022-08-01T18:17:09;10.25;;;2.40;;
7279;SDS011;3681;52.254;10.532;2022-08-01T18:20:32;9.60;;;2.10;;
7279;SDS011;3681;52.254;10.532;2022-08-01T18:23:55;7.75;;;1.25;;
7279;SDS011;3681;52.254;10.532;2022-08-01T18:27:17;6.22;;;2.42;;
7279;SDS011;3681;52.254;10.532;2022-08-01T18:30:41;8.85;;;1.90;;
7279;SDS011;3681;52.254;10.532;2022-08-01T18:34:05;10.32;;;2.10;;
7279;SDS011;3681;52.254;10.532;2022-08-01T18:37:28;9.45;;;1.90;;
7279;SDS011;3681;52.254;10.532;2022-08-01T18:40:57;7.78;;;1.95;;
7279;SDS011;3681;52.254;10.532;2022-08-01T18:44:19;9.27;;;2.20;;
7279;SDS011;3681;52.254;10.532;2022-08-01T18:47:41;7.57;;;2.13;;
7279;SDS011;3681;52.254;10.532;2022-08-01T18:51:05;8.50;;;2.10;;
7279;SDS011;3681;52.254;10.532;2022-08-01T18:54:31;4.30;;;1.65;;
7279;SDS011;3681;52.254;10.532;2022-08-01T18:57:52;3.83;;;1.75;;
7279;SDS011;3681;52.254;10.532;2022-08-01T19:01:13;7.93;;;1.95;;
7279;SDS011;3681;52.254;10.532;2022-08-01T19:04:35;5.85;;;1.65;;
7279;SDS011;3681;52.254;10.532;2022-08-01T19:07:58;7.07;;;2.35;;
7279;SDS011;3681;52.254;10.532;2022-08-01T19:11:27;8.35;;;2.05;;
7279;SDS011;3681;52.254;10.532;2022-08-01T19:14:49;7.13;;;1.63;;
7279;SDS011;3681;52.254;10.532;2022-08-01T19:18:11;10.48;;;2.28;;
7279;SDS011;3681;52.254;10.532;2022-08-01T19:21:36;7.07;;;2.03;;
7279;SDS011;3681;52.254;10.532;2022-08-01T19:25:05;8.55;;;2.40;;
7279;SDS011;3681;52.254;10.532;2022-08-01T19:28:34;8.60;;;3.42;;
7279;SDS011;3681;52.254;10.532;2022-08-01T19:32:05;13.18;;;2.50;;
7279;SDS011;3681;52.254;10.532;2022-08-01T19:35:33;7.85;;;2.50;;
7279;SDS011;3681;52.254;10.532;2022-08-01T19:38:57;7.80;;;3.13;;
7279;SDS011;3681;52.254;10.532;2022-08-01T19:42:22;7.75;;;1.65;;
7279;SDS011;3681;52.254;10.532;2022-08-01T19:45:44;1.95;;;1.48;;
7279;SDS011;3681;52.254;10.532;2022-08-01T19:49:10;8.98;;;2.45;;
7279;SDS011;3681;52.254;10.532;2022-08-01T19:52:32;9.55;;;2.63;;
7279;SDS011;3681;52.254;10.532;2022-08-01T19:56:00;11.87;;;3.27;;
7279;SDS011;3681;52.254;10.532;2022-08-01T19:59:25;11.13;;;3.43;;
7279;SDS011;3681;52.254;10.532;2022-08-01T20:02:50;12.93;;;2.88;;
7279;SDS011;3681;52.254;10.532;2022-08-01T20:06:17;6.90;;;2.80;;
7279;SDS011;3681;52.254;10.532;2022-08-01T20:09:46;5.70;;;1.30;;
7279;SDS011;3681;52.254;10.532;2022-08-01T20:13:14;7.70;;;1.57;;
7279;SDS011;3681;52.254;10.532;2022-08-01T20:16:39;5.90;;;1.57;;
7279;SDS011;3681;52.254;10.532;2022-08-01T20:20:02;8.87;;;1.30;;
7279;SDS011;3681;52.254;10.532;2022-08-01T20:23:30;9.10;;;1.33;;
7279;SDS011;3681;52.254;10.532;2022-08-01T20:26:57;5.70;;;1.17;;
7279;SDS011;3681;52.254;10.532;2022-08-01T20:30:20;11.23;;;1.67;;
7279;SDS011;3681;52.254;10.532;2022-08-01T20:33:47;5.57;;;1.40;;
7279;SDS011;3681;52.254;10.532;2022-08-01T20:37:09;7.00;;;1.53;;
7279;SDS011;3681;52.254;10.532;2022-08-01T20:40:32;5.67;;;1.13;;
7279;SDS011;3681;52.254;10.532;2022-08-01T20:43:55;5.73;;;1.33;;
7279;SDS011;3681;52.254;10.532;2022-08-01T20:47:19;7.63;;;1.10;;
7279;SDS011;3681;52.254;10.532;2022-08-01T20:50:43;5.90;;;1.17;;
7279;SDS011;3681;52.254;10.532;2022-08-01T20:54:25;3.13;;;1.07;;
7279;SDS011;3681;52.254;10.532;2022-08-01T20:57:48;3.63;;;1.40;;
7279;SDS011;3681;52.254;10.532;2022-08-01T21:01:13;8.60;;;1.50;;